Colorado Springs, CO (80917)

7:39 PM MST on March 04, 2015 (GMT -0700)
Inspiration & Whimsical Village 7 | Change Station
CLOSE
Current Station
Personal Weather Station
Location: Colorado Springs, CO
Elevation: 6588 ft
Nearby Weather Stations

Elev 6588 ft 38.88 °N, 104.73 °W | Updated 7 seconds ago

Overcast
Overcast
9.2 °F
Feels Like 9 °F
N
0.0
Wind Variable Wind from SSE
Gusts 0.0 mph

Today
High -- | Low -- °F
--% Chance of Precip.
Yesterday
High -- | Low -- °F
Precip. -- in
6:27 AM 5:54 PM
Full, 100% visible
Pressure 30.47 in
Visibility 3.0 miles
Clouds Mostly Cloudy 1400 ft
Overcast 1800 ft
Windchill 9 °F
Dew Point 6 °F
Humidity 87%
Rainfall 0.02 in
Snow Depth Not available.
UV 0 out of 12
Pollen .80 out of 12
Air Quality Not available.
Flu Activity Not available.
METAR KCOS 050154Z 16005KT 3SM -SN BR BKN014 OVC018 M12/M14 A3018 RMK AO2 SNB44 SLP318 P0000 I1001 T11221139

More Conditions Fewer Conditions

Pressure 30.47 in
Visibility 3.0 miles
Clouds Mostly Cloudy 1400 ft
Overcast 1800 ft
Windchill 9 °F
Dew Point 6 °F
Humidity 87%
Rainfall 0.02 in
Snow Depth Not available.
UV 0 out of 12
Pollen .80 out of 12
Air Quality Not available.
Flu Activity Not available.
METAR KCOS 050154Z 16005KT 3SM -SN BR BKN014 OVC018 M12/M14 A3018 RMK AO2 SNB44 SLP318 P0000 I1001 T11221139

More Conditions Fewer Conditions

10-Day Weather Forecast

Almanac

Astronomy

Mar. 04, 2015 Rise Set
Actual Time
Civil Twilight
Nautical Twilight
Astronomical Twilight
Moon
Length of Visible Light
Length of Day
Tomorrow will be .
, % of the Moon is Illuminated

Today's Extremes

State Highs State Lows

Community

WunderPhotos

Upload Photos

1,802,631 photos uploaded!

WunderBlogs® & News

Nearby

Air Quality

  Air Quality AQ Index Pollutant
Not available.

Snow Depth

Station Depth Elevation

Earthquake Activity

City Distance Mag. Time & Date
Minimum magnitude displayed is 2.5.

Coastal Water Temperatures

Place Temperature

Nearby Weather Stations